Time;durP1;ratioP1;P1;durP2;ratioP2;P2;SDS_P1;SDS_P2;PMS_P1;PMS_P2;Temp;Humidity;BMP_temperature;BMP_pressure;BME280_temperature;BME280_humidity;BME280_pressure;Samples;Min_cycle;Max_cycle;Signal;HPM_P1;HPM_P2
2023/12/31 00:02:22;;;;;;;;;;;10.30;99.90;;;;;;5021226;28;19921;-75
2023/12/31 00:04:52;;;;;;;;;;;10.10;99.90;;;;;;5016540;28;19921;-75
2023/12/31 00:07:19;;;;;;;;;;;10.10;99.90;;;;;;5019973;28;19932;-74
2023/12/31 00:09:47;;;;;;;;;;;10.10;99.90;;;;;;5024413;28;19929;-75
2023/12/31 00:12:15;;;;;;;;;;;10.10;99.90;;;;;;5026902;28;19921;-75
2023/12/31 00:14:43;;;;;;;;;;;10.20;99.90;;;;;;5027613;28;19929;-76
2023/12/31 00:17:11;;;;;;;;;;;10.10;99.90;;;;;;5029778;28;19925;-74
2023/12/31 00:19:38;;;;;;;;;;;10.10;99.90;;;;;;5032679;28;19928;-74
2023/12/31 00:22:08;;;;;;;;;;;10.00;99.90;;;;;;5015969;28;20399;-74
2023/12/31 00:24:36;;;;;;;;;;;10.00;99.90;;;;;;5032173;28;20307;-74
2023/12/31 00:27:04;;;;;;;;;;;9.90;99.90;;;;;;5018405;28;19921;-75
2023/12/31 00:29:31;;;;;;;;;;;9.90;99.90;;;;;;5030268;28;19975;-76
2023/12/31 00:32:00;;;;;;;;;;;9.80;99.90;;;;;;5032954;28;20373;-73
2023/12/31 00:34:27;;;;;;;;;;;9.70;99.90;;;;;;5032855;28;19952;-73
2023/12/31 00:36:55;;;;;;;;;;;9.60;99.90;;;;;;5032953;28;19929;-73
2023/12/31 00:39:24;;;;;;;;;;;9.60;99.90;;;;;;5032376;28;19921;-74
2023/12/31 00:41:52;;;;;;;;;;;9.50;99.90;;;;;;5027689;28;19941;-76
2023/12/31 00:44:20;;;;;;;;;;;9.50;99.90;;;;;;5021205;28;19928;-73
2023/12/31 00:46:48;;;;;;;;;;;9.40;99.90;;;;;;5018281;28;19983;-74
2023/12/31 00:49:16;;;;;;;;;;;9.30;99.90;;;;;;5031359;28;19921;-74
2023/12/31 00:51:44;;;;;;;;;;;9.20;99.90;;;;;;5028042;28;20012;-74
2023/12/31 00:54:11;;;;;;;;;;;9.20;99.90;;;;;;5013000;28;19928;-74
2023/12/31 00:56:41;;;;;;;;;;;9.10;99.90;;;;;;5012772;28;19925;-75
2023/12/31 00:59:08;;;;;;;;;;;9.10;99.90;;;;;;5014240;28;19972;-73
2023/12/31 01:01:36;;;;;;;;;;;9.20;99.90;;;;;;5021178;28;19921;-77
2023/12/31 01:04:04;;;;;;;;;;;9.10;99.90;;;;;;5012544;28;19976;-73
2023/12/31 01:06:32;;;;;;;;;;;9.00;99.90;;;;;;5023351;28;19944;-75
2023/12/31 01:08:59;;;;;;;;;;;9.00;99.90;;;;;;5026048;28;19929;-77
2023/12/31 01:11:28;;;;;;;;;;;8.90;99.90;;;;;;5022216;28;19921;-74
2023/12/31 01:13:57;;;;;;;;;;;8.90;99.90;;;;;;5018684;28;20297;-74
2023/12/31 01:16:24;;;;;;;;;;;8.80;99.90;;;;;;5030477;28;20382;-74
2023/12/31 01:18:52;;;;;;;;;;;8.80;99.90;;;;;;5031471;28;19921;-75
2023/12/31 01:21:20;;;;;;;;;;;8.70;99.90;;;;;;5031125;28;19921;-74
2023/12/31 01:23:48;;;;;;;;;;;8.70;99.90;;;;;;5020921;28;20367;-74
2023/12/31 01:26:15;;;;;;;;;;;8.70;99.90;;;;;;5012590;28;19921;-75
2023/12/31 01:28:43;;;;;;;;;;;8.60;99.90;;;;;;5019488;28;20348;-77
2023/12/31 01:31:19;;;;;;;;;;;8.70;99.90;;;;;;5011960;28;19932;-75
2023/12/31 01:33:47;;;;;;;;;;;8.60;99.90;;;;;;5027163;28;19929;-77
2023/12/31 01:36:16;;;;;;;;;;;8.50;99.90;;;;;;5020434;28;20380;-71
2023/12/31 01:38:44;;;;;;;;;;;8.50;99.90;;;;;;5015733;28;19921;-73
2023/12/31 01:41:12;;;;;;;;;;;8.40;99.90;;;;;;5015811;28;20016;-74
2023/12/31 01:43:40;;;;;;;;;;;8.40;99.90;;;;;;5020106;28;19921;-74
2023/12/31 01:46:09;;;;;;;;;;;8.30;99.90;;;;;;5018176;28;19921;-76
2023/12/31 01:48:40;;;;;;;;;;;8.40;99.90;;;;;;5029824;28;20319;-78
2023/12/31 01:51:08;;;;;;;;;;;8.30;99.90;;;;;;5018473;28;20412;-75
2023/12/31 01:53:35;;;;;;;;;;;8.30;99.90;;;;;;5028084;28;19925;-76
2023/12/31 01:56:03;;;;;;;;;;;8.30;99.90;;;;;;5017911;28;20291;-75
2023/12/31 01:58:31;;;;;;;;;;;8.20;99.90;;;;;;5023307;28;19928;-75
2023/12/31 02:00:59;;;;;;;;;;;8.20;99.90;;;;;;5017327;28;19929;-76
2023/12/31 02:03:29;;;;;;;;;;;8.20;99.90;;;;;;5019688;28;20361;-76
2023/12/31 02:05:58;;;;;;;;;;;8.20;99.90;;;;;;5020052;28;20032;-78
2023/12/31 02:08:26;;;;;;;;;;;8.20;99.90;;;;;;5012362;28;19921;-77
2023/12/31 02:10:54;;;;;;;;;;;8.10;99.90;;;;;;5010984;28;20068;-76
2023/12/31 02:13:22;;;;;;;;;;;8.10;99.90;;;;;;5016248;28;19927;-76
2023/12/31 02:15:52;;;;;;;;;;;8.20;99.90;;;;;;5012921;28;19921;-76
2023/12/31 02:18:20;;;;;;;;;;;8.20;99.90;;;;;;5026802;28;19932;-76
2023/12/31 02:20:48;;;;;;;;;;;8.20;99.90;;;;;;5030071;28;19921;-76
2023/12/31 02:23:17;;;;;;;;;;;8.30;99.90;;;;;;5027576;28;20008;-75
2023/12/31 02:25:48;;;;;;;;;;;8.40;99.90;;;;;;5011282;28;19932;-74
2023/12/31 02:28:17;;;;;;;;;;;8.40;99.90;;;;;;5019755;28;19921;-73
2023/12/31 02:30:45;;;;;;;;;;;8.40;99.90;;;;;;5019342;28;19922;-74
2023/12/31 02:33:13;;;;;;;;;;;8.30;99.90;;;;;;5020874;28;19925;-74
2023/12/31 02:35:41;;;;;;;;;;;8.30;99.90;;;;;;5019703;28;19929;-75
2023/12/31 02:38:08;;;;;;;;;;;8.30;99.90;;;;;;5013100;28;19948;-75
2023/12/31 02:40:37;;;;;;;;;;;8.30;99.90;;;;;;5021369;28;19925;-75
2023/12/31 02:43:04;;;;;;;;;;;8.30;99.90;;;;;;5017588;28;19921;-76
2023/12/31 02:45:34;;;;;;;;;;;8.20;99.90;;;;;;5022734;28;20288;-74
2023/12/31 02:48:02;;;;;;;;;;;8.10;99.90;;;;;;5031358;28;20307;-73
2023/12/31 02:50:31;;;;;;;;;;;8.20;99.90;;;;;;5034411;28;19921;-71
2023/12/31 02:52:58;;;;;;;;;;;8.20;99.90;;;;;;5035616;28;19931;-71
2023/12/31 02:55:26;;;;;;;;;;;8.20;99.90;;;;;;5031255;28;19968;-72
2023/12/31 02:57:54;;;;;;;;;;;8.20;99.90;;;;;;5023922;28;20392;-72
2023/12/31 03:00:22;;;;;;;;;;;8.20;99.90;;;;;;5015039;28;20402;-72
2023/12/31 03:02:51;;;;;;;;;;;8.20;99.90;;;;;;5028842;28;19940;-72
2023/12/31 03:05:18;;;;;;;;;;;8.30;99.90;;;;;;5034526;28;20019;-73
2023/12/31 03:07:46;;;;;;;;;;;8.30;99.90;;;;;;5025360;28;19925;-72
2023/12/31 03:10:14;;;;;;;;;;;8.20;99.90;;;;;;5022560;28;19928;-75
2023/12/31 03:12:42;;;;;;;;;;;8.30;99.90;;;;;;5021630;28;19921;-73
2023/12/31 03:15:11;;;;;;;;;;;8.20;99.90;;;;;;5029952;28;19921;-73
2023/12/31 03:17:39;;;;;;;;;;;8.20;99.90;;;;;;5028834;28;19932;-73
2023/12/31 03:20:10;;;;;;;;;;;8.10;99.90;;;;;;5033451;28;19925;-73
2023/12/31 03:22:38;;;;;;;;;;;8.20;99.90;;;;;;5032622;28;19921;-73
2023/12/31 03:25:10;;;;;;;;;;;8.10;99.90;;;;;;5031712;28;20406;-73
2023/12/31 03:27:38;;;;;;;;;;;8.10;99.90;;;;;;5024504;28;19925;-73
2023/12/31 03:30:06;;;;;;;;;;;8.10;99.90;;;;;;5026131;28;19936;-74
2023/12/31 03:32:34;;;;;;;;;;;8.20;99.90;;;;;;5033575;28;20404;-74
2023/12/31 03:35:02;;;;;;;;;;;8.00;99.90;;;;;;5028672;28;19921;-74
2023/12/31 03:37:32;;;;;;;;;;;7.90;99.90;;;;;;5018134;28;19929;-74
2023/12/31 03:39:59;;;;;;;;;;;7.80;99.90;;;;;;5029511;28;19928;-78
2023/12/31 03:42:27;;;;;;;;;;;7.70;99.90;;;;;;5017503;28;19991;-75
2023/12/31 03:44:55;;;;;;;;;;;7.70;99.90;;;;;;5023783;28;19925;-75
2023/12/31 03:47:23;;;;;;;;;;;7.70;99.90;;;;;;5033842;28;19927;-75
2023/12/31 03:49:51;;;;;;;;;;;7.50;99.90;;;;;;5029961;28;19925;-75
2023/12/31 03:52:19;;;;;;;;;;;7.40;99.90;;;;;;5021755;28;20412;-75
2023/12/31 03:54:48;;;;;;;;;;;7.20;99.90;;;;;;5016369;28;19921;-75
2023/12/31 03:57:16;;;;;;;;;;;7.00;99.90;;;;;;5027225;28;19928;-75
2023/12/31 03:59:43;;;;;;;;;;;6.80;99.90;;;;;;5013227;28;19925;-75
2023/12/31 04:02:11;;;;;;;;;;;6.70;99.90;;;;;;5022717;28;19921;-75
2023/12/31 04:04:39;;;;;;;;;;;6.70;99.90;;;;;;5031072;28;19925;-75
2023/12/31 04:07:07;;;;;;;;;;;6.80;99.90;;;;;;5013382;28;20403;-75
2023/12/31 04:09:35;;;;;;;;;;;7.00;99.90;;;;;;5021253;28;19921;-73
2023/12/31 04:12:04;;;;;;;;;;;7.20;99.90;;;;;;5013304;28;19925;-72
2023/12/31 04:14:32;;;;;;;;;;;7.40;99.90;;;;;;5021189;28;19921;-74
2023/12/31 04:17:00;;;;;;;;;;;7.50;99.90;;;;;;5027718;28;20312;-74
2023/12/31 04:19:28;;;;;;;;;;;7.50;99.90;;;;;;5032251;28;19921;-75
2023/12/31 04:21:56;;;;;;;;;;;7.50;99.90;;;;;;5020707;28;19925;-70
2023/12/31 04:24:24;;;;;;;;;;;7.40;99.90;;;;;;5020758;28;19987;-69
2023/12/31 04:26:51;;;;;;;;;;;7.30;99.90;;;;;;5011821;28;19975;-69
2023/12/31 04:29:21;;;;;;;;;;;7.10;99.90;;;;;;5015701;28;20403;-68
2023/12/31 04:31:48;;;;;;;;;;;7.20;99.90;;;;;;5012029;28;19925;-69
2023/12/31 04:34:21;;;;;;;;;;;7.00;99.90;;;;;;5010758;28;20295;-72
2023/12/31 04:36:49;;;;;;;;;;;7.00;99.90;;;;;;5017161;28;19933;-69
2023/12/31 04:39:17;;;;;;;;;;;6.90;99.90;;;;;;5014943;28;20131;-69
2023/12/31 04:41:44;;;;;;;;;;;7.00;99.90;;;;;;5014039;28;19929;-70
2023/12/31 04:44:12;;;;;;;;;;;6.90;99.90;;;;;;5009305;28;19936;-68
2023/12/31 04:46:41;;;;;;;;;;;6.80;99.90;;;;;;5016154;28;20392;-68
2023/12/31 04:49:09;;;;;;;;;;;6.80;99.90;;;;;;5015218;28;20327;-68
2023/12/31 04:51:37;;;;;;;;;;;6.80;99.90;;;;;;5011427;28;19925;-69
2023/12/31 04:54:05;;;;;;;;;;;6.60;99.90;;;;;;5003578;28;21070;-69
2023/12/31 04:56:33;;;;;;;;;;;6.60;99.90;;;;;;5005903;28;19987;-69
2023/12/31 04:59:00;;;;;;;;;;;6.60;99.90;;;;;;5006982;28;19921;-69
2023/12/31 05:01:31;;;;;;;;;;;6.40;99.90;;;;;;5015704;28;19983;-68
2023/12/31 05:04:01;;;;;;;;;;;6.40;99.90;;;;;;5012711;28;19932;-69
2023/12/31 05:06:29;;;;;;;;;;;6.30;99.90;;;;;;5013646;28;19929;-71
2023/12/31 05:08:57;;;;;;;;;;;6.40;99.90;;;;;;5007599;28;20260;-70
2023/12/31 05:11:26;;;;;;;;;;;6.30;99.90;;;;;;5005415;28;19929;-69
2023/12/31 05:13:54;;;;;;;;;;;6.30;99.90;;;;;;5003762;28;19929;-69
2023/12/31 05:16:22;;;;;;;;;;;6.20;99.90;;;;;;5012848;28;20051;-70
2023/12/31 05:18:51;;;;;;;;;;;6.30;99.90;;;;;;5004845;28;20007;-69
2023/12/31 05:21:21;;;;;;;;;;;6.20;99.90;;;;;;5012171;28;19935;-70
2023/12/31 05:23:48;;;;;;;;;;;6.20;99.90;;;;;;5010145;28;19929;-70
2023/12/31 05:26:16;;;;;;;;;;;6.20;99.90;;;;;;5014493;28;19940;-71
2023/12/31 05:28:44;;;;;;;;;;;6.30;99.90;;;;;;5005939;28;19933;-68
2023/12/31 05:31:12;;;;;;;;;;;6.40;99.90;;;;;;5011012;28;19929;-68
2023/12/31 05:33:41;;;;;;;;;;;6.30;99.90;;;;;;5005214;28;19929;-68
2023/12/31 05:36:09;;;;;;;;;;;6.30;99.90;;;;;;5006743;28;19939;-69
2023/12/31 05:38:38;;;;;;;;;;;6.30;99.90;;;;;;4994031;28;19965;-70
2023/12/31 05:41:06;;;;;;;;;;;6.40;99.90;;;;;;5005851;28;20378;-69
2023/12/31 05:43:34;;;;;;;;;;;6.30;99.90;;;;;;5007333;28;20284;-69
2023/12/31 05:46:02;;;;;;;;;;;6.30;99.90;;;;;;5005491;28;20299;-69
2023/12/31 05:48:29;;;;;;;;;;;6.30;99.90;;;;;;5005773;28;19987;-70
2023/12/31 05:50:57;;;;;;;;;;;6.20;99.90;;;;;;5015251;28;19932;-69
2023/12/31 05:53:25;;;;;;;;;;;6.30;99.90;;;;;;5011295;28;19930;-69
2023/12/31 05:55:54;;;;;;;;;;;6.30;99.90;;;;;;5007470;28;19929;-69
2023/12/31 05:58:22;;;;;;;;;;;6.30;99.90;;;;;;5014767;28;19929;-69
2023/12/31 06:00:50;;;;;;;;;;;6.30;99.90;;;;;;5012511;28;19930;-71
2023/12/31 06:03:18;;;;;;;;;;;6.30;99.90;;;;;;5010652;28;19930;-71
2023/12/31 06:05:46;;;;;;;;;;;6.40;99.90;;;;;;5008319;28;19936;-71
2023/12/31 06:08:13;;;;;;;;;;;6.30;99.90;;;;;;5010026;28;19999;-70
2023/12/31 06:10:41;;;;;;;;;;;6.30;99.90;;;;;;5016478;28;19928;-70
2023/12/31 06:13:10;;;;;;;;;;;6.40;99.90;;;;;;5015155;28;20243;-72
2023/12/31 06:15:38;;;;;;;;;;;6.30;99.90;;;;;;5007678;28;19936;-69
2023/12/31 06:18:06;;;;;;;;;;;6.30;99.90;;;;;;5014886;28;20509;-70
2023/12/31 06:20:34;;;;;;;;;;;6.20;99.90;;;;;;5015401;28;19928;-70
2023/12/31 06:23:02;;;;;;;;;;;6.20;99.90;;;;;;5017168;28;19921;-71
2023/12/31 06:25:30;;;;;;;;;;;6.20;99.90;;;;;;5005965;28;19929;-71
2023/12/31 06:27:58;;;;;;;;;;;6.20;99.90;;;;;;5017378;28;19968;-71
2023/12/31 06:30:27;;;;;;;;;;;6.30;99.90;;;;;;5012741;28;19955;-72
2023/12/31 06:32:55;;;;;;;;;;;6.20;99.90;;;;;;5012863;28;20033;-70
2023/12/31 06:35:23;;;;;;;;;;;6.20;99.90;;;;;;5007156;28;19972;-70
2023/12/31 06:37:51;;;;;;;;;;;6.20;99.90;;;;;;5017336;28;19936;-70
2023/12/31 06:40:19;;;;;;;;;;;6.20;99.90;;;;;;5014421;28;20662;-72
2023/12/31 06:42:46;;;;;;;;;;;6.30;99.90;;;;;;5009005;28;19929;-72
2023/12/31 06:45:14;;;;;;;;;;;6.20;99.90;;;;;;5007443;28;19940;-70
2023/12/31 06:47:43;;;;;;;;;;;6.30;99.90;;;;;;5011512;28;20586;-69
2023/12/31 06:50:11;;;;;;;;;;;6.30;99.90;;;;;;5005998;28;19937;-73
2023/12/31 06:52:39;;;;;;;;;;;6.40;99.90;;;;;;5006935;28;19972;-73
2023/12/31 06:55:10;;;;;;;;;;;6.40;99.90;;;;;;5003656;28;20027;-71
2023/12/31 06:57:38;;;;;;;;;;;6.50;99.90;;;;;;5007150;28;19932;-74
2023/12/31 07:00:07;;;;;;;;;;;6.50;99.90;;;;;;5008394;28;19930;-72
2023/12/31 07:02:35;;;;;;;;;;;6.60;99.90;;;;;;5008572;28;20985;-71
2023/12/31 07:05:05;;;;;;;;;;;6.50;99.90;;;;;;5004263;28;19921;-70
2023/12/31 07:07:33;;;;;;;;;;;6.40;99.90;;;;;;5006067;28;20412;-70
2023/12/31 07:10:01;;;;;;;;;;;6.50;99.90;;;;;;5004621;28;20027;-74
2023/12/31 07:12:28;;;;;;;;;;;6.50;99.90;;;;;;5010607;28;21142;-73
2023/12/31 07:14:56;;;;;;;;;;;6.50;99.90;;;;;;5004846;28;19929;-70
2023/12/31 07:17:24;;;;;;;;;;;6.50;99.90;;;;;;5007607;28;19925;-73
2023/12/31 07:19:57;;;;;;;;;;;6.50;99.90;;;;;;5007318;28;19929;-72
2023/12/31 07:22:27;;;;;;;;;;;6.50;99.90;;;;;;5011302;28;19933;-72
2023/12/31 07:24:55;;;;;;;;;;;6.40;99.90;;;;;;5007671;28;19940;-75
2023/12/31 07:27:23;;;;;;;;;;;6.50;99.90;;;;;;5010672;28;20488;-70
2023/12/31 07:29:51;;;;;;;;;;;6.50;99.90;;;;;;5006842;28;20470;-69
2023/12/31 07:32:19;;;;;;;;;;;6.60;99.90;;;;;;5009905;28;19925;-74
2023/12/31 07:34:46;;;;;;;;;;;6.60;99.90;;;;;;5010390;28;19936;-71
2023/12/31 07:37:15;;;;;;;;;;;6.60;99.90;;;;;;5012731;28;19937;-70
2023/12/31 07:39:44;;;;;;;;;;;6.60;99.90;;;;;;5008140;28;19932;-70
2023/12/31 07:42:12;;;;;;;;;;;6.70;99.90;;;;;;5012710;28;20667;-70
2023/12/31 07:44:39;;;;;;;;;;;6.60;99.90;;;;;;5011630;28;19936;-72
2023/12/31 07:47:07;;;;;;;;;;;6.60;99.90;;;;;;5011625;28;19975;-70
2023/12/31 07:49:36;;;;;;;;;;;6.50;99.90;;;;;;5007452;28;19922;-72
2023/12/31 07:52:04;;;;;;;;;;;6.50;99.90;;;;;;5007302;28;20290;-71
2023/12/31 07:54:32;;;;;;;;;;;6.40;99.90;;;;;;5012331;28;19929;-71
2023/12/31 07:57:01;;;;;;;;;;;6.50;99.90;;;;;;5010278;28;20304;-74
2023/12/31 07:59:29;;;;;;;;;;;6.50;99.90;;;;;;5013520;28;19962;-73
2023/12/31 08:01:57;;;;;;;;;;;6.60;99.90;;;;;;5009862;28;19936;-73
2023/12/31 08:04:25;;;;;;;;;;;6.50;99.90;;;;;;5007987;28;20032;-73
2023/12/31 08:06:53;;;;;;;;;;;6.60;99.90;;;;;;5012452;28;19929;-75
2023/12/31 08:09:21;;;;;;;;;;;6.70;99.90;;;;;;5010193;28;19935;-72
2023/12/31 08:11:48;;;;;;;;;;;6.70;99.90;;;;;;5015639;28;19948;-75
2023/12/31 08:14:18;;;;;;;;;;;6.70;99.90;;;;;;5010187;28;19925;-71
2023/12/31 08:16:46;;;;;;;;;;;6.70;99.90;;;;;;5008112;28;19933;-75
2023/12/31 08:19:14;;;;;;;;;;;6.80;99.90;;;;;;5007034;28;19972;-72
2023/12/31 08:21:41;;;;;;;;;;;6.80;99.90;;;;;;5008732;28;19929;-72
2023/12/31 08:24:09;;;;;;;;;;;6.90;99.90;;;;;;5009854;28;20421;-73
2023/12/31 08:26:37;;;;;;;;;;;6.90;99.90;;;;;;5010051;28;20407;-71
2023/12/31 08:29:05;;;;;;;;;;;6.90;99.90;;;;;;5008013;28;19925;-71
2023/12/31 08:31:34;;;;;;;;;;;6.90;99.90;;;;;;5006941;28;19921;-72
2023/12/31 08:34:04;;;;;;;;;;;6.90;99.90;;;;;;5007362;28;20507;-74
2023/12/31 08:36:32;;;;;;;;;;;6.80;99.90;;;;;;5009992;28;20376;-71
2023/12/31 08:39:00;;;;;;;;;;;6.80;99.90;;;;;;5007630;28;19931;-73
2023/12/31 08:41:28;;;;;;;;;;;6.80;99.90;;;;;;5008455;28;19929;-73
2023/12/31 08:43:56;;;;;;;;;;;6.80;99.90;;;;;;5007607;28;20423;-72
2023/12/31 08:46:23;;;;;;;;;;;6.80;99.90;;;;;;5009054;28;19929;-71
2023/12/31 08:48:53;;;;;;;;;;;6.80;99.90;;;;;;5007091;28;19925;-73
2023/12/31 08:51:20;;;;;;;;;;;6.90;99.90;;;;;;5010129;28;20445;-71
2023/12/31 08:53:48;;;;;;;;;;;6.90;99.90;;;;;;5007570;28;19983;-73
2023/12/31 08:56:16;;;;;;;;;;;6.90;99.90;;;;;;5010795;28;19925;-73
2023/12/31 08:58:44;;;;;;;;;;;7.00;99.90;;;;;;5008693;28;20363;-73
2023/12/31 09:01:12;;;;;;;;;;;6.90;99.90;;;;;;5009911;28;19929;-73
2023/12/31 09:03:40;;;;;;;;;;;7.00;99.90;;;;;;5005567;28;19930;-74
2023/12/31 09:06:11;;;;;;;;;;;7.00;99.90;;;;;;5008249;28;19936;-74
2023/12/31 09:08:39;;;;;;;;;;;7.00;99.90;;;;;;5005988;28;20364;-74
2023/12/31 09:11:07;;;;;;;;;;;7.00;99.90;;;;;;5010029;28;19929;-71
2023/12/31 09:13:35;;;;;;;;;;;7.00;99.90;;;;;;5007540;28;19936;-71
2023/12/31 09:16:03;;;;;;;;;;;7.10;99.90;;;;;;5007817;28;19921;-74
2023/12/31 09:18:31;;;;;;;;;;;7.20;99.90;;;;;;5009449;28;19927;-71
2023/12/31 09:20:59;;;;;;;;;;;7.20;99.90;;;;;;5007436;28;19995;-71
2023/12/31 09:23:28;;;;;;;;;;;7.20;99.90;;;;;;5007734;28;19936;-72
2023/12/31 09:25:56;;;;;;;;;;;7.30;99.90;;;;;;5006852;28;19932;-71
2023/12/31 09:28:24;;;;;;;;;;;7.30;99.90;;;;;;5006887;28;19973;-74
2023/12/31 09:30:52;;;;;;;;;;;7.30;99.90;;;;;;5007618;28;19925;-72
2023/12/31 09:33:19;;;;;;;;;;;7.40;99.90;;;;;;5005602;28;20026;-73
2023/12/31 09:35:47;;;;;;;;;;;7.40;99.90;;;;;;5004626;28;20477;-72
2023/12/31 09:38:15;;;;;;;;;;;7.40;99.90;;;;;;5005444;28;19944;-73
2023/12/31 09:40:44;;;;;;;;;;;7.60;99.90;;;;;;5007182;28;20467;-71
2023/12/31 09:43:19;;;;;;;;;;;7.50;99.90;;;;;;4988830;28;20316;-71
2023/12/31 09:45:48;;;;;;;;;;;7.50;99.90;;;;;;5006008;28;20513;-72
2023/12/31 09:48:16;;;;;;;;;;;7.50;99.90;;;;;;5009476;28;20067;-73
2023/12/31 09:50:44;;;;;;;;;;;7.50;99.90;;;;;;5007048;28;20038;-72
2023/12/31 09:53:12;;;;;;;;;;;7.60;99.90;;;;;;5006317;28;20396;-71
2023/12/31 09:55:40;;;;;;;;;;;7.70;99.90;;;;;;5003440;28;19929;-73
2023/12/31 09:58:10;;;;;;;;;;;7.80;99.90;;;;;;5007129;28;19926;-76
2023/12/31 10:00:38;;;;;;;;;;;7.80;99.90;;;;;;5005234;28;20763;-76
2023/12/31 10:03:07;;;;;;;;;;;7.80;99.90;;;;;;5007117;28;19929;-71
2023/12/31 10:05:36;;;;;;;;;;;7.80;99.90;;;;;;5005459;28;20320;-75
2023/12/31 10:08:05;;;;;;;;;;;7.80;99.90;;;;;;5005751;28;20012;-72
2023/12/31 10:10:34;;;;;;;;;;;7.90;99.90;;;;;;5005283;28;20396;-75
2023/12/31 10:13:02;;;;;;;;;;;7.90;99.90;;;;;;5008091;28;19951;-74
2023/12/31 10:15:32;;;;;;;;;;;8.00;99.90;;;;;;5001924;28;20460;-72
2023/12/31 10:18:02;;;;;;;;;;;8.00;99.90;;;;;;5006390;28;19929;-74
2023/12/31 10:20:35;;;;;;;;;;;8.00;99.90;;;;;;5006514;28;20028;-72
2023/12/31 10:23:03;;;;;;;;;;;8.00;99.90;;;;;;5004671;28;19925;-72
2023/12/31 10:25:31;;;;;;;;;;;8.10;99.90;;;;;;5002641;28;20012;-74
2023/12/31 10:27:59;;;;;;;;;;;8.10;99.90;;;;;;5006096;28;19936;-71
2023/12/31 10:30:28;;;;;;;;;;;8.00;99.90;;;;;;5003432;28;20283;-73
2023/12/31 10:33:07;;;;;;;;;;;8.00;99.90;;;;;;5005564;28;19929;-73
2023/12/31 10:35:36;;;;;;;;;;;8.00;99.90;;;;;;5003458;28;20905;-73
2023/12/31 10:38:05;;;;;;;;;;;8.00;99.90;;;;;;5007184;28;19925;-74
2023/12/31 10:40:34;;;;;;;;;;;8.00;99.90;;;;;;5007520;28;19921;-73
2023/12/31 10:43:05;;;;;;;;;;;8.10;99.90;;;;;;5004574;28;19960;-74
2023/12/31 10:45:34;;;;;;;;;;;8.10;99.90;;;;;;5006092;28;19929;-73
2023/12/31 10:48:05;;;;;;;;;;;8.10;99.90;;;;;;5008688;28;19925;-74
2023/12/31 10:50:36;;;;;;;;;;;8.20;99.90;;;;;;5014623;28;20376;-75
2023/12/31 10:53:04;;;;;;;;;;;8.20;99.90;;;;;;5015033;28;19921;-72
2023/12/31 10:55:33;;;;;;;;;;;8.10;99.90;;;;;;5007450;28;19921;-72
2023/12/31 10:58:01;;;;;;;;;;;8.20;99.90;;;;;;5011662;28;19921;-72
2023/12/31 11:00:30;;;;;;;;;;;8.20;99.90;;;;;;5014898;28;19929;-71
2023/12/31 11:02:59;;;;;;;;;;;8.20;99.90;;;;;;5009573;28;19964;-72
2023/12/31 11:05:29;;;;;;;;;;;8.20;99.90;;;;;;5008056;28;20496;-73
2023/12/31 11:07:57;;;;;;;;;;;8.30;99.90;;;;;;5011376;28;19929;-72
2023/12/31 11:10:26;;;;;;;;;;;8.30;99.90;;;;;;5011972;28;20930;-73
2023/12/31 11:12:53;;;;;;;;;;;8.30;99.90;;;;;;5045238;22;19929;-65
2023/12/31 11:15:22;;;;;;;;;;;8.20;99.90;;;;;;5038093;28;19928;-65
2023/12/31 11:18:02;;;;;;;;;;;8.10;99.90;;;;;;5041993;28;20311;-65
2023/12/31 11:20:40;;;;;;;;;;;8.10;99.90;;;;;;5041868;28;19932;-66
2023/12/31 11:23:10;;;;;;;;;;;8.00;99.90;;;;;;5034163;28;19991;-65
2023/12/31 11:25:39;;;;;;;;;;;8.00;99.90;;;;;;5018249;28;19935;-65
2023/12/31 11:28:07;;;;;;;;;;;7.90;99.90;;;;;;5022307;28;19968;-66
2023/12/31 11:30:44;;;;;;;;;;;7.90;99.90;;;;;;5021911;28;20020;-65
2023/12/31 11:33:12;;;;;;;;;;;7.90;99.90;;;;;;5021498;28;20016;-66
2023/12/31 11:35:45;;;;;;;;;;;8.00;99.90;;;;;;5017873;28;19936;-63
2023/12/31 11:38:12;;;;;;;;;;;8.00;99.90;;;;;;5022278;28;19929;-65
2023/12/31 11:40:40;;;;;;;;;;;8.00;99.90;;;;;;5019676;28;19933;-67
2023/12/31 11:43:13;;;;;;;;;;;8.00;99.90;;;;;;5022273;28;20006;-66
2023/12/31 11:45:41;;;;;;;;;;;8.00;99.90;;;;;;5021643;28;19925;-65
2023/12/31 11:48:25;;;;;;;;;;;8.00;99.90;;;;;;5022553;28;19928;-66
2023/12/31 11:50:56;;;;;;;;;;;8.00;99.90;;;;;;5019237;28;20403;-65
2023/12/31 11:53:26;;;;;;;;;;;8.00;99.90;;;;;;5021757;28;20220;-66
2023/12/31 11:55:54;;;;;;;;;;;8.00;99.90;;;;;;5048301;28;19936;-66
2023/12/31 11:58:22;;;;;;;;;;;7.90;99.90;;;;;;5021429;28;19951;-66
2023/12/31 12:00:50;;;;;;;;;;;7.90;99.90;;;;;;5019879;28;19979;-66
2023/12/31 12:03:19;;;;;;;;;;;7.90;99.90;;;;;;5022023;28;19928;-65
2023/12/31 12:05:49;;;;;;;;;;;7.90;99.90;;;;;;5022447;28;19959;-66
2023/12/31 12:08:20;;;;;;;;;;;8.00;99.90;;;;;;5021824;28;21085;-64
2023/12/31 12:10:47;;;;;;;;;;;8.00;99.90;;;;;;5019291;28;19929;-66
2023/12/31 12:13:15;;;;;;;;;;;7.90;99.90;;;;;;5026185;28;19929;-66
2023/12/31 12:15:43;;;;;;;;;;;8.00;99.90;;;;;;5037371;28;19946;-65
2023/12/31 12:18:15;;;;;;;;;;;8.00;99.90;;;;;;5036423;28;19929;-66
2023/12/31 12:20:43;;;;;;;;;;;8.00;99.90;;;;;;5034282;28;19936;-65
2023/12/31 12:23:12;;;;;;;;;;;8.10;99.90;;;;;;5036694;28;19974;-66
2023/12/31 12:25:43;;;;;;;;;;;8.10;99.90;;;;;;5034977;28;19928;-66
2023/12/31 12:28:11;;;;;;;;;;;8.10;99.90;;;;;;5035736;28;20019;-66
2023/12/31 12:30:40;;;;;;;;;;;8.10;99.90;;;;;;5032786;28;19937;-67
2023/12/31 12:33:08;;;;;;;;;;;8.10;99.90;;;;;;5036337;28;19925;-67
2023/12/31 12:35:43;;;;;;;;;;;8.20;99.90;;;;;;5037365;28;19936;-65
2023/12/31 12:38:12;;;;;;;;;;;8.30;99.90;;;;;;5038577;28;20025;-64
2023/12/31 12:40:41;;;;;;;;;;;8.30;99.90;;;;;;5032120;28;20410;-65
2023/12/31 12:43:12;;;;;;;;;;;8.30;99.90;;;;;;5035219;28;20460;-64
2023/12/31 12:45:40;;;;;;;;;;;8.40;99.90;;;;;;5036559;28;20030;-65
2023/12/31 12:48:09;;;;;;;;;;;8.40;99.90;;;;;;5036032;28;19924;-66
2023/12/31 12:50:37;;;;;;;;;;;8.40;99.90;;;;;;5032951;28;19928;-67
2023/12/31 12:53:04;;;;;;;;;;;8.30;99.90;;;;;;5037339;28;19928;-65
2023/12/31 12:55:32;;;;;;;;;;;8.30;99.90;;;;;;5037480;28;19929;-64
2023/12/31 12:58:00;;;;;;;;;;;8.20;99.90;;;;;;5037763;28;20027;-66
2023/12/31 13:00:29;;;;;;;;;;;8.20;99.90;;;;;;5034148;28;20079;-66
2023/12/31 13:02:57;;;;;;;;;;;8.20;99.90;;;;;;5037452;28;19975;-64
2023/12/31 13:05:25;;;;;;;;;;;8.30;99.90;;;;;;5037378;28;19924;-65
2023/12/31 13:07:53;;;;;;;;;;;8.50;99.90;;;;;;5038060;28;19933;-66
2023/12/31 13:10:21;;;;;;;;;;;8.50;99.90;;;;;;5032925;28;19933;-66
2023/12/31 13:12:49;;;;;;;;;;;8.60;99.90;;;;;;5036864;28;19929;-66
2023/12/31 13:15:17;;;;;;;;;;;8.60;99.90;;;;;;5037919;28;19990;-65
2023/12/31 13:17:46;;;;;;;;;;;8.60;99.90;;;;;;5036891;28;19929;-66
2023/12/31 13:20:14;;;;;;;;;;;8.70;99.90;;;;;;5032084;28;20003;-65
2023/12/31 13:22:42;;;;;;;;;;;8.70;99.90;;;;;;5034305;28;20687;-66
2023/12/31 13:25:10;;;;;;;;;;;8.70;99.90;;;;;;5035193;28;20592;-66
2023/12/31 13:27:38;;;;;;;;;;;8.70;99.90;;;;;;5033999;28;20354;-65
2023/12/31 13:30:06;;;;;;;;;;;8.70;99.90;;;;;;5027638;28;20352;-66
2023/12/31 13:32:34;;;;;;;;;;;8.70;99.90;;;;;;5035273;28;19920;-66
2023/12/31 13:35:04;;;;;;;;;;;8.70;99.90;;;;;;5033477;28;19932;-65
2023/12/31 13:37:31;;;;;;;;;;;8.80;99.90;;;;;;5034722;28;19924;-66
2023/12/31 13:39:59;;;;;;;;;;;8.70;99.90;;;;;;5032213;28;19924;-66
2023/12/31 13:42:30;;;;;;;;;;;8.70;99.90;;;;;;5035886;28;19928;-65
2023/12/31 13:44:59;;;;;;;;;;;8.70;99.90;;;;;;5036010;28;19947;-66
2023/12/31 13:47:27;;;;;;;;;;;8.70;99.90;;;;;;5037074;28;20547;-65
2023/12/31 13:49:56;;;;;;;;;;;8.70;99.90;;;;;;5033947;28;20331;-66
2023/12/31 13:52:26;;;;;;;;;;;8.70;99.90;;;;;;5036695;28;19964;-66
2023/12/31 13:54:54;;;;;;;;;;;8.70;99.90;;;;;;5036693;28;20417;-67
2023/12/31 13:57:22;;;;;;;;;;;8.60;99.90;;;;;;5036473;28;19929;-67
2023/12/31 13:59:50;;;;;;;;;;;8.60;99.90;;;;;;5032479;28;20311;-67
2023/12/31 14:02:17;;;;;;;;;;;8.60;99.90;;;;;;5036240;28;19929;-66
2023/12/31 14:04:45;;;;;;;;;;;8.70;99.90;;;;;;5036737;28;19929;-65
2023/12/31 14:07:13;;;;;;;;;;;8.70;99.90;;;;;;5035242;28;19929;-64
2023/12/31 14:09:42;;;;;;;;;;;8.70;99.90;;;;;;5031907;28;19925;-64
2023/12/31 14:12:16;;;;;;;;;;;8.80;99.90;;;;;;5035327;28;19936;-64
2023/12/31 14:14:44;;;;;;;;;;;9.00;99.90;;;;;;5036241;28;19929;-64
2023/12/31 14:17:12;;;;;;;;;;;9.00;99.90;;;;;;5036384;28;19936;-64
2023/12/31 14:19:41;;;;;;;;;;;9.10;99.90;;;;;;5032032;28;20469;-66
2023/12/31 14:22:09;;;;;;;;;;;9.20;99.90;;;;;;5034852;28;19929;-65
2023/12/31 14:24:37;;;;;;;;;;;9.20;99.90;;;;;;5034941;28;20776;-66
2023/12/31 14:27:07;;;;;;;;;;;9.30;99.90;;;;;;5034504;28;19921;-64
2023/12/31 14:29:35;;;;;;;;;;;9.20;99.90;;;;;;5033807;28;20296;-64
2023/12/31 14:32:02;;;;;;;;;;;9.30;99.90;;;;;;5035678;28;19931;-67
2023/12/31 14:34:30;;;;;;;;;;;9.20;99.90;;;;;;5029740;28;19964;-68
2023/12/31 14:36:59;;;;;;;;;;;8.90;99.90;;;;;;5034447;28;19947;-67